sensor_id;sensor_type;location;lat;lon;timestamp;P1;durP1;ratioP1;P2;durP2;ratioP2
7607;SDS011;3845;48.120;11.534;2023-10-13T00:00:32;3.33;;;2.13;;
7607;SDS011;3845;48.120;11.534;2023-10-13T00:03:05;3.70;;;1.90;;
7607;SDS011;3845;48.120;11.534;2023-10-13T00:05:31;4.20;;;2.30;;
7607;SDS011;3845;48.120;11.534;2023-10-13T00:08:00;4.37;;;1.90;;
7607;SDS011;3845;48.120;11.534;2023-10-13T00:10:28;3.30;;;1.70;;
7607;SDS011;3845;48.120;11.534;2023-10-13T00:12:53;2.67;;;1.80;;
7607;SDS011;3845;48.120;11.534;2023-10-13T00:15:19;3.43;;;1.77;;
7607;SDS011;3845;48.120;11.534;2023-10-13T00:17:52;4.27;;;2.07;;
7607;SDS011;3845;48.120;11.534;2023-10-13T00:20:20;5.10;;;2.10;;
7607;SDS011;3845;48.120;11.534;2023-10-13T00:23:02;3.00;;;2.00;;
7607;SDS011;3845;48.120;11.534;2023-10-13T00:25:28;2.30;;;1.77;;
7607;SDS011;3845;48.120;11.534;2023-10-13T00:27:53;3.77;;;2.00;;
7607;SDS011;3845;48.120;11.534;2023-10-13T00:30:18;2.37;;;1.70;;
7607;SDS011;3845;48.120;11.534;2023-10-13T00:32:51;3.90;;;2.00;;
7607;SDS011;3845;48.120;11.534;2023-10-13T00:35:24;2.77;;;1.80;;
7607;SDS011;3845;48.120;11.534;2023-10-13T00:37:53;3.37;;;1.90;;
7607;SDS011;3845;48.120;11.534;2023-10-13T00:40:19;3.53;;;2.00;;
7607;SDS011;3845;48.120;11.534;2023-10-13T00:42:56;3.50;;;2.07;;
7607;SDS011;3845;48.120;11.534;2023-10-13T00:45:42;3.87;;;1.90;;
7607;SDS011;3845;48.120;11.534;2023-10-13T00:48:09;3.23;;;1.90;;
7607;SDS011;3845;48.120;11.534;2023-10-13T00:50:38;3.50;;;2.00;;
7607;SDS011;3845;48.120;11.534;2023-10-13T00:53:04;2.37;;;1.90;;
7607;SDS011;3845;48.120;11.534;2023-10-13T00:55:29;4.00;;;2.00;;
7607;SDS011;3845;48.120;11.534;2023-10-13T00:57:58;4.13;;;1.80;;
7607;SDS011;3845;48.120;11.534;2023-10-13T01:00:28;3.87;;;1.90;;
7607;SDS011;3845;48.120;11.534;2023-10-13T01:02:54;3.90;;;2.10;;
7607;SDS011;3845;48.120;11.534;2023-10-13T01:05:21;2.70;;;1.80;;
7607;SDS011;3845;48.120;11.534;2023-10-13T01:07:47;2.60;;;1.70;;
7607;SDS011;3845;48.120;11.534;2023-10-13T01:10:20;2.33;;;1.80;;
7607;SDS011;3845;48.120;11.534;2023-10-13T01:12:50;4.00;;;1.90;;
7607;SDS011;3845;48.120;11.534;2023-10-13T01:15:17;2.53;;;1.80;;
7607;SDS011;3845;48.120;11.534;2023-10-13T01:17:46;3.83;;;2.17;;
7607;SDS011;3845;48.120;11.534;2023-10-13T01:20:12;2.93;;;1.80;;
7607;SDS011;3845;48.120;11.534;2023-10-13T01:22:45;3.80;;;1.80;;
7607;SDS011;3845;48.120;11.534;2023-10-13T01:25:20;2.93;;;1.87;;
7607;SDS011;3845;48.120;11.534;2023-10-13T01:27:51;4.40;;;2.20;;
7607;SDS011;3845;48.120;11.534;2023-10-13T01:30:17;4.80;;;3.03;;
7607;SDS011;3845;48.120;11.534;2023-10-13T01:32:47;5.57;;;2.60;;
7607;SDS011;3845;48.120;11.534;2023-10-13T01:35:14;3.53;;;2.50;;
7607;SDS011;3845;48.120;11.534;2023-10-13T01:37:44;4.23;;;2.40;;
7607;SDS011;3845;48.120;11.534;2023-10-13T01:40:12;3.87;;;2.23;;
7607;SDS011;3845;48.120;11.534;2023-10-13T01:42:38;4.53;;;2.30;;
7607;SDS011;3845;48.120;11.534;2023-10-13T01:45:04;4.57;;;2.27;;
7607;SDS011;3845;48.120;11.534;2023-10-13T01:47:33;3.83;;;2.10;;
7607;SDS011;3845;48.120;11.534;2023-10-13T01:49:58;2.97;;;1.80;;
7607;SDS011;3845;48.120;11.534;2023-10-13T01:52:37;3.47;;;1.90;;
7607;SDS011;3845;48.120;11.534;2023-10-13T01:55:03;4.67;;;2.10;;
7607;SDS011;3845;48.120;11.534;2023-10-13T01:57:31;3.80;;;2.00;;
7607;SDS011;3845;48.120;11.534;2023-10-13T01:59:57;3.80;;;2.10;;
7607;SDS011;3845;48.120;11.534;2023-10-13T02:02:28;3.73;;;1.97;;
7607;SDS011;3845;48.120;11.534;2023-10-13T02:04:54;3.70;;;2.30;;
7607;SDS011;3845;48.120;11.534;2023-10-13T02:07:25;3.07;;;2.50;;
7607;SDS011;3845;48.120;11.534;2023-10-13T02:09:59;4.13;;;2.03;;
7607;SDS011;3845;48.120;11.534;2023-10-13T02:12:25;4.60;;;2.10;;
7607;SDS011;3845;48.120;11.534;2023-10-13T02:14:54;3.90;;;2.00;;
7607;SDS011;3845;48.120;11.534;2023-10-13T02:17:19;3.00;;;1.73;;
7607;SDS011;3845;48.120;11.534;2023-10-13T02:19:46;4.97;;;2.00;;
7607;SDS011;3845;48.120;11.534;2023-10-13T02:22:12;2.97;;;1.83;;
7607;SDS011;3845;48.120;11.534;2023-10-13T02:24:49;3.23;;;2.13;;
7607;SDS011;3845;48.120;11.534;2023-10-13T02:27:17;3.77;;;2.10;;
7607;SDS011;3845;48.120;11.534;2023-10-13T02:29:42;2.60;;;2.03;;
7607;SDS011;3845;48.120;11.534;2023-10-13T02:32:11;2.43;;;1.90;;
7607;SDS011;3845;48.120;11.534;2023-10-13T02:34:44;3.80;;;2.23;;
7607;SDS011;3845;48.120;11.534;2023-10-13T02:37:13;3.93;;;2.17;;
7607;SDS011;3845;48.120;11.534;2023-10-13T02:39:41;2.70;;;2.33;;
7607;SDS011;3845;48.120;11.534;2023-10-13T02:42:07;3.50;;;2.37;;
7607;SDS011;3845;48.120;11.534;2023-10-13T02:44:33;2.70;;;2.10;;
7607;SDS011;3845;48.120;11.534;2023-10-13T02:47:01;3.03;;;2.30;;
7607;SDS011;3845;48.120;11.534;2023-10-13T02:49:28;4.07;;;2.20;;
7607;SDS011;3845;48.120;11.534;2023-10-13T02:51:58;3.53;;;2.20;;
7607;SDS011;3845;48.120;11.534;2023-10-13T02:54:29;3.90;;;2.20;;
7607;SDS011;3845;48.120;11.534;2023-10-13T02:57:04;3.67;;;2.13;;
7607;SDS011;3845;48.120;11.534;2023-10-13T02:59:30;4.03;;;2.30;;
7607;SDS011;3845;48.120;11.534;2023-10-13T03:02:02;2.83;;;2.10;;
7607;SDS011;3845;48.120;11.534;2023-10-13T03:04:42;2.90;;;2.33;;
7607;SDS011;3845;48.120;11.534;2023-10-13T03:07:08;3.70;;;2.13;;
7607;SDS011;3845;48.120;11.534;2023-10-13T03:09:33;3.47;;;2.10;;
7607;SDS011;3845;48.120;11.534;2023-10-13T03:12:02;3.17;;;2.00;;
7607;SDS011;3845;48.120;11.534;2023-10-13T03:14:29;5.00;;;2.50;;
7607;SDS011;3845;48.120;11.534;2023-10-13T03:16:58;3.13;;;2.10;;
7607;SDS011;3845;48.120;11.534;2023-10-13T03:19:31;3.80;;;2.07;;
7607;SDS011;3845;48.120;11.534;2023-10-13T03:22:05;5.03;;;2.10;;
7607;SDS011;3845;48.120;11.534;2023-10-13T03:24:37;3.23;;;2.20;;
7607;SDS011;3845;48.120;11.534;2023-10-13T03:27:09;3.03;;;1.97;;
7607;SDS011;3845;48.120;11.534;2023-10-13T03:29:39;2.47;;;1.87;;
7607;SDS011;3845;48.120;11.534;2023-10-13T03:32:12;4.87;;;1.97;;
7607;SDS011;3845;48.120;11.534;2023-10-13T03:34:40;2.50;;;1.90;;
7607;SDS011;3845;48.120;11.534;2023-10-13T03:37:14;2.97;;;1.97;;
7607;SDS011;3845;48.120;11.534;2023-10-13T03:39:44;4.80;;;2.20;;
7607;SDS011;3845;48.120;11.534;2023-10-13T03:42:10;3.00;;;2.10;;
7607;SDS011;3845;48.120;11.534;2023-10-13T03:44:44;3.93;;;1.90;;
7607;SDS011;3845;48.120;11.534;2023-10-13T03:47:11;4.63;;;2.30;;
7607;SDS011;3845;48.120;11.534;2023-10-13T03:49:43;3.00;;;2.00;;
7607;SDS011;3845;48.120;11.534;2023-10-13T03:52:09;4.03;;;1.90;;
7607;SDS011;3845;48.120;11.534;2023-10-13T03:54:38;3.40;;;1.80;;
7607;SDS011;3845;48.120;11.534;2023-10-13T03:57:05;3.80;;;2.00;;
7607;SDS011;3845;48.120;11.534;2023-10-13T03:59:36;2.60;;;1.90;;
7607;SDS011;3845;48.120;11.534;2023-10-13T04:02:03;2.90;;;1.90;;
7607;SDS011;3845;48.120;11.534;2023-10-13T04:04:36;4.00;;;1.87;;
7607;SDS011;3845;48.120;11.534;2023-10-13T04:07:08;4.63;;;2.13;;
7607;SDS011;3845;48.120;11.534;2023-10-13T04:09:34;2.47;;;1.90;;
7607;SDS011;3845;48.120;11.534;2023-10-13T04:12:12;2.80;;;1.83;;
7607;SDS011;3845;48.120;11.534;2023-10-13T04:14:44;4.00;;;2.10;;
7607;SDS011;3845;48.120;11.534;2023-10-13T04:17:42;4.40;;;2.07;;
7607;SDS011;3845;48.120;11.534;2023-10-13T04:20:11;3.83;;;2.07;;
7607;SDS011;3845;48.120;11.534;2023-10-13T04:22:37;3.40;;;1.70;;
7607;SDS011;3845;48.120;11.534;2023-10-13T04:25:12;3.93;;;2.00;;
7607;SDS011;3845;48.120;11.534;2023-10-13T04:28:00;3.47;;;1.70;;
7607;SDS011;3845;48.120;11.534;2023-10-13T04:33:31;4.07;;;2.10;;
7607;SDS011;3845;48.120;11.534;2023-10-13T04:36:04;2.83;;;1.90;;
7607;SDS011;3845;48.120;11.534;2023-10-13T04:38:49;2.73;;;1.70;;
7607;SDS011;3845;48.120;11.534;2023-10-13T04:41:24;3.37;;;2.10;;
7607;SDS011;3845;48.120;11.534;2023-10-13T04:43:56;3.93;;;1.93;;
7607;SDS011;3845;48.120;11.534;2023-10-13T04:46:43;3.33;;;1.97;;
7607;SDS011;3845;48.120;11.534;2023-10-13T04:49:12;4.17;;;2.13;;
7607;SDS011;3845;48.120;11.534;2023-10-13T04:51:55;5.53;;;2.07;;
7607;SDS011;3845;48.120;11.534;2023-10-13T04:54:28;2.93;;;2.03;;
7607;SDS011;3845;48.120;11.534;2023-10-13T04:57:12;3.80;;;1.80;;
7607;SDS011;3845;48.120;11.534;2023-10-13T04:59:56;5.40;;;2.10;;
7607;SDS011;3845;48.120;11.534;2023-10-13T05:02:37;3.13;;;2.10;;
7607;SDS011;3845;48.120;11.534;2023-10-13T05:05:07;4.50;;;2.10;;
7607;SDS011;3845;48.120;11.534;2023-10-13T05:07:37;3.80;;;2.20;;
7607;SDS011;3845;48.120;11.534;2023-10-13T05:10:21;3.47;;;2.00;;
7607;SDS011;3845;48.120;11.534;2023-10-13T05:13:06;4.27;;;2.20;;
7607;SDS011;3845;48.120;11.534;2023-10-13T05:15:50;4.00;;;1.93;;
7607;SDS011;3845;48.120;11.534;2023-10-13T05:18:34;2.93;;;2.10;;
7607;SDS011;3845;48.120;11.534;2023-10-13T05:21:19;4.27;;;2.50;;
7607;SDS011;3845;48.120;11.534;2023-10-13T05:24:03;4.17;;;2.27;;
7607;SDS011;3845;48.120;11.534;2023-10-13T05:26:47;4.37;;;2.30;;
7607;SDS011;3845;48.120;11.534;2023-10-13T05:29:31;5.03;;;2.20;;
7607;SDS011;3845;48.120;11.534;2023-10-13T05:32:15;4.43;;;2.40;;
7607;SDS011;3845;48.120;11.534;2023-10-13T05:34:59;3.17;;;2.20;;
7607;SDS011;3845;48.120;11.534;2023-10-13T05:37:43;6.53;;;2.50;;
7607;SDS011;3845;48.120;11.534;2023-10-13T05:40:27;3.30;;;2.30;;
7607;SDS011;3845;48.120;11.534;2023-10-13T05:43:11;4.80;;;2.70;;
7607;SDS011;3845;48.120;11.534;2023-10-13T05:46:05;3.27;;;2.27;;
7607;SDS011;3845;48.120;11.534;2023-10-13T05:49:06;4.13;;;2.10;;
7607;SDS011;3845;48.120;11.534;2023-10-13T05:51:40;6.80;;;2.20;;
7607;SDS011;3845;48.120;11.534;2023-10-13T05:54:06;3.23;;;2.23;;
7607;SDS011;3845;48.120;11.534;2023-10-13T05:56:50;2.83;;;2.23;;
7607;SDS011;3845;48.120;11.534;2023-10-13T05:59:34;4.00;;;2.50;;
7607;SDS011;3845;48.120;11.534;2023-10-13T06:02:27;4.73;;;2.50;;
7607;SDS011;3845;48.120;11.534;2023-10-13T06:05:12;5.37;;;2.30;;
7607;SDS011;3845;48.120;11.534;2023-10-13T06:07:56;4.97;;;2.30;;
7607;SDS011;3845;48.120;11.534;2023-10-13T06:10:41;5.80;;;2.40;;
7607;SDS011;3845;48.120;11.534;2023-10-13T06:13:25;3.50;;;2.10;;
7607;SDS011;3845;48.120;11.534;2023-10-13T06:16:10;4.13;;;2.30;;
7607;SDS011;3845;48.120;11.534;2023-10-13T06:18:55;5.47;;;2.33;;
7607;SDS011;3845;48.120;11.534;2023-10-13T06:21:39;5.93;;;2.60;;
7607;SDS011;3845;48.120;11.534;2023-10-13T06:24:23;7.40;;;3.13;;
7607;SDS011;3845;48.120;11.534;2023-10-13T06:27:07;4.93;;;3.10;;
7607;SDS011;3845;48.120;11.534;2023-10-13T06:29:51;5.73;;;2.87;;
7607;SDS011;3845;48.120;11.534;2023-10-13T06:32:18;4.03;;;2.60;;
7607;SDS011;3845;48.120;11.534;2023-10-13T06:34:44;4.57;;;2.37;;
7607;SDS011;3845;48.120;11.534;2023-10-13T06:37:13;4.33;;;2.60;;
7607;SDS011;3845;48.120;11.534;2023-10-13T06:39:55;4.60;;;2.40;;
7607;SDS011;3845;48.120;11.534;2023-10-13T06:42:27;4.90;;;2.40;;
7607;SDS011;3845;48.120;11.534;2023-10-13T06:44:53;3.53;;;2.37;;
7607;SDS011;3845;48.120;11.534;2023-10-13T06:47:19;4.53;;;2.57;;
7607;SDS011;3845;48.120;11.534;2023-10-13T06:49:46;7.33;;;2.43;;
7607;SDS011;3845;48.120;11.534;2023-10-13T06:52:13;3.77;;;2.30;;
7607;SDS011;3845;48.120;11.534;2023-10-13T06:54:39;3.47;;;2.20;;
7607;SDS011;3845;48.120;11.534;2023-10-13T06:57:06;4.67;;;2.30;;
7607;SDS011;3845;48.120;11.534;2023-10-13T06:59:35;5.17;;;2.60;;
7607;SDS011;3845;48.120;11.534;2023-10-13T07:02:02;3.63;;;2.80;;
7607;SDS011;3845;48.120;11.534;2023-10-13T07:04:31;6.33;;;3.23;;
7607;SDS011;3845;48.120;11.534;2023-10-13T07:06:57;7.00;;;3.30;;
7607;SDS011;3845;48.120;11.534;2023-10-13T07:09:25;4.23;;;3.23;;
7607;SDS011;3845;48.120;11.534;2023-10-13T07:12:01;6.77;;;3.27;;
7607;SDS011;3845;48.120;11.534;2023-10-13T07:14:32;4.47;;;2.53;;
7607;SDS011;3845;48.120;11.534;2023-10-13T07:17:05;4.13;;;2.53;;
7607;SDS011;3845;48.120;11.534;2023-10-13T07:19:33;5.30;;;2.60;;
7607;SDS011;3845;48.120;11.534;2023-10-13T07:21:59;6.50;;;2.37;;
7607;SDS011;3845;48.120;11.534;2023-10-13T07:24:44;3.80;;;2.40;;
7607;SDS011;3845;48.120;11.534;2023-10-13T07:27:13;5.43;;;2.17;;
7607;SDS011;3845;48.120;11.534;2023-10-13T07:29:47;3.73;;;2.17;;
7607;SDS011;3845;48.120;11.534;2023-10-13T07:32:19;7.10;;;3.27;;
7607;SDS011;3845;48.120;11.534;2023-10-13T07:34:49;6.87;;;3.77;;
7607;SDS011;3845;48.120;11.534;2023-10-13T07:37:14;4.73;;;3.07;;
7607;SDS011;3845;48.120;11.534;2023-10-13T07:39:41;4.07;;;2.67;;
7607;SDS011;3845;48.120;11.534;2023-10-13T07:42:07;4.77;;;2.93;;
7607;SDS011;3845;48.120;11.534;2023-10-13T07:44:40;5.10;;;2.50;;
7607;SDS011;3845;48.120;11.534;2023-10-13T07:47:11;4.37;;;2.33;;
7607;SDS011;3845;48.120;11.534;2023-10-13T07:49:39;4.17;;;2.50;;
7607;SDS011;3845;48.120;11.534;2023-10-13T07:52:05;4.03;;;2.53;;
7607;SDS011;3845;48.120;11.534;2023-10-13T07:54:47;4.30;;;3.00;;
7607;SDS011;3845;48.120;11.534;2023-10-13T07:57:21;5.37;;;3.60;;
7607;SDS011;3845;48.120;11.534;2023-10-13T07:59:54;5.13;;;3.00;;
7607;SDS011;3845;48.120;11.534;2023-10-13T08:02:31;6.70;;;2.73;;
7607;SDS011;3845;48.120;11.534;2023-10-13T08:05:16;6.17;;;2.70;;
7607;SDS011;3845;48.120;11.534;2023-10-13T08:07:53;5.77;;;2.90;;
7607;SDS011;3845;48.120;11.534;2023-10-13T08:10:18;6.17;;;2.70;;
7607;SDS011;3845;48.120;11.534;2023-10-13T08:12:49;5.27;;;2.63;;
7607;SDS011;3845;48.120;11.534;2023-10-13T08:15:17;6.87;;;3.87;;
7607;SDS011;3845;48.120;11.534;2023-10-13T08:17:58;7.20;;;3.00;;
7607;SDS011;3845;48.120;11.534;2023-10-13T08:20:42;6.67;;;3.20;;
7607;SDS011;3845;48.120;11.534;2023-10-13T08:23:09;5.80;;;2.90;;
7607;SDS011;3845;48.120;11.534;2023-10-13T08:25:45;4.67;;;2.63;;
7607;SDS011;3845;48.120;11.534;2023-10-13T08:28:29;5.50;;;3.10;;
7607;SDS011;3845;48.120;11.534;2023-10-13T08:31:04;5.90;;;2.70;;
7607;SDS011;3845;48.120;11.534;2023-10-13T08:33:39;4.27;;;2.70;;
7607;SDS011;3845;48.120;11.534;2023-10-13T08:36:11;5.97;;;2.53;;
7607;SDS011;3845;48.120;11.534;2023-10-13T08:38:52;6.30;;;3.43;;
7607;SDS011;3845;48.120;11.534;2023-10-13T08:41:20;6.07;;;3.40;;
7607;SDS011;3845;48.120;11.534;2023-10-13T08:43:45;5.53;;;3.37;;
7607;SDS011;3845;48.120;11.534;2023-10-13T08:46:15;9.10;;;3.80;;
7607;SDS011;3845;48.120;11.534;2023-10-13T08:48:55;7.23;;;3.43;;
7607;SDS011;3845;48.120;11.534;2023-10-13T08:51:54;6.27;;;2.70;;
7607;SDS011;3845;48.120;11.534;2023-10-13T08:54:35;7.80;;;3.10;;
7607;SDS011;3845;48.120;11.534;2023-10-13T08:57:04;4.23;;;2.67;;
7607;SDS011;3845;48.120;11.534;2023-10-13T08:59:48;7.27;;;2.93;;
7607;SDS011;3845;48.120;11.534;2023-10-13T09:02:20;6.70;;;3.10;;
7607;SDS011;3845;48.120;11.534;2023-10-13T09:05:08;6.13;;;3.27;;
7607;SDS011;3845;48.120;11.534;2023-10-13T09:07:54;5.83;;;3.40;;
7607;SDS011;3845;48.120;11.534;2023-10-13T09:10:24;5.80;;;2.90;;
7607;SDS011;3845;48.120;11.534;2023-10-13T09:12:58;5.70;;;2.70;;
7607;SDS011;3845;48.120;11.534;2023-10-13T09:15:28;5.33;;;2.67;;
7607;SDS011;3845;48.120;11.534;2023-10-13T09:18:23;6.00;;;2.50;;
7607;SDS011;3845;48.120;11.534;2023-10-13T09:21:07;5.00;;;2.60;;
7607;SDS011;3845;48.120;11.534;2023-10-13T09:24:01;7.97;;;2.67;;
7607;SDS011;3845;48.120;11.534;2023-10-13T09:26:41;5.20;;;2.57;;
7607;SDS011;3845;48.120;11.534;2023-10-13T09:29:16;6.07;;;2.73;;
7607;SDS011;3845;48.120;11.534;2023-10-13T09:31:43;5.70;;;2.90;;
7607;SDS011;3845;48.120;11.534;2023-10-13T09:34:20;9.33;;;2.77;;
7607;SDS011;3845;48.120;11.534;2023-10-13T09:36:48;8.00;;;2.90;;
7607;SDS011;3845;48.120;11.534;2023-10-13T09:39:20;5.63;;;2.63;;
7607;SDS011;3845;48.120;11.534;2023-10-13T09:42:07;6.53;;;2.60;;
7607;SDS011;3845;48.120;11.534;2023-10-13T09:44:35;4.43;;;2.30;;
7607;SDS011;3845;48.120;11.534;2023-10-13T09:47:02;6.00;;;2.80;;
7607;SDS011;3845;48.120;11.534;2023-10-13T09:49:43;5.70;;;2.80;;
7607;SDS011;3845;48.120;11.534;2023-10-13T09:52:11;3.47;;;2.23;;
7607;SDS011;3845;48.120;11.534;2023-10-13T09:54:44;5.30;;;2.20;;
7607;SDS011;3845;48.120;11.534;2023-10-13T09:57:24;6.10;;;2.33;;
7607;SDS011;3845;48.120;11.534;2023-10-13T10:00:00;3.13;;;2.23;;
7607;SDS011;3845;48.120;11.534;2023-10-13T10:02:40;5.03;;;2.70;;
7607;SDS011;3845;48.120;11.534;2023-10-13T10:05:08;4.60;;;2.77;;
7607;SDS011;3845;48.120;11.534;2023-10-13T10:07:40;5.27;;;2.60;;
7607;SDS011;3845;48.120;11.534;2023-10-13T10:10:05;4.13;;;2.57;;
7607;SDS011;3845;48.120;11.534;2023-10-13T10:18:21;8.37;;;3.30;;
7607;SDS011;3845;48.120;11.534;2023-10-13T10:20:50;5.97;;;3.03;;
7607;SDS011;3845;48.120;11.534;2023-10-13T10:23:26;6.93;;;2.90;;
7607;SDS011;3845;48.120;11.534;2023-10-13T10:25:54;4.97;;;2.50;;
7607;SDS011;3845;48.120;11.534;2023-10-13T10:28:37;7.63;;;2.40;;
7607;SDS011;3845;48.120;11.534;2023-10-13T10:31:04;6.87;;;2.50;;
7607;SDS011;3845;48.120;11.534;2023-10-13T10:33:30;5.10;;;2.40;;
7607;SDS011;3845;48.120;11.534;2023-10-13T10:35:59;5.87;;;2.63;;
7607;SDS011;3845;48.120;11.534;2023-10-13T10:38:25;3.97;;;2.67;;
7607;SDS011;3845;48.120;11.534;2023-10-13T10:41:03;5.47;;;2.20;;
7607;SDS011;3845;48.120;11.534;2023-10-13T10:46:07;7.23;;;2.50;;
7607;SDS011;3845;48.120;11.534;2023-10-13T10:48:55;4.87;;;2.57;;
7607;SDS011;3845;48.120;11.534;2023-10-13T10:51:26;3.10;;;1.97;;
7607;SDS011;3845;48.120;11.534;2023-10-13T10:53:56;3.93;;;2.00;;
7607;SDS011;3845;48.120;11.534;2023-10-13T10:56:23;5.60;;;2.30;;
7607;SDS011;3845;48.120;11.534;2023-10-13T10:58:54;4.30;;;2.20;;
7607;SDS011;3845;48.120;11.534;2023-10-13T11:01:21;5.00;;;2.07;;
7607;SDS011;3845;48.120;11.534;2023-10-13T11:03:57;5.57;;;2.20;;
7607;SDS011;3845;48.120;11.534;2023-10-13T11:06:24;4.83;;;2.23;;
7607;SDS011;3845;48.120;11.534;2023-10-13T11:09:00;5.43;;;2.20;;
7607;SDS011;3845;48.120;11.534;2023-10-13T11:11:44;5.67;;;2.30;;
7607;SDS011;3845;48.120;11.534;2023-10-13T11:14:25;4.13;;;2.07;;
7607;SDS011;3845;48.120;11.534;2023-10-13T11:16:52;5.40;;;2.07;;
7607;SDS011;3845;48.120;11.534;2023-10-13T11:19:19;4.80;;;1.97;;
7607;SDS011;3845;48.120;11.534;2023-10-13T11:22:16;5.47;;;2.40;;
7607;SDS011;3845;48.120;11.534;2023-10-13T11:24:58;4.70;;;2.20;;
7607;SDS011;3845;48.120;11.534;2023-10-13T11:27:28;7.43;;;2.87;;
7607;SDS011;3845;48.120;11.534;2023-10-13T11:30:09;4.57;;;2.70;;
7607;SDS011;3845;48.120;11.534;2023-10-13T11:32:39;3.80;;;2.20;;
7607;SDS011;3845;48.120;11.534;2023-10-13T11:35:10;6.17;;;2.67;;
7607;SDS011;3845;48.120;11.534;2023-10-13T11:37:45;5.50;;;2.20;;
7607;SDS011;3845;48.120;11.534;2023-10-13T11:40:22;6.63;;;2.17;;
7607;SDS011;3845;48.120;11.534;2023-10-13T11:43:06;5.67;;;2.70;;
7607;SDS011;3845;48.120;11.534;2023-10-13T11:45:38;7.97;;;2.60;;
7607;SDS011;3845;48.120;11.534;2023-10-13T11:48:17;7.07;;;2.70;;
7607;SDS011;3845;48.120;11.534;2023-10-13T11:50:48;4.33;;;2.00;;
7607;SDS011;3845;48.120;11.534;2023-10-13T11:53:14;3.87;;;2.00;;
7607;SDS011;3845;48.120;11.534;2023-10-13T11:55:41;2.87;;;1.97;;
7607;SDS011;3845;48.120;11.534;2023-10-13T11:58:06;4.83;;;2.43;;
7607;SDS011;3845;48.120;11.534;2023-10-13T12:00:31;6.20;;;2.50;;
7607;SDS011;3845;48.120;11.534;2023-10-13T12:03:15;4.67;;;2.43;;
7607;SDS011;3845;48.120;11.534;2023-10-13T12:05:59;5.37;;;2.20;;
7607;SDS011;3845;48.120;11.534;2023-10-13T12:08:45;7.00;;;2.30;;
7607;SDS011;3845;48.120;11.534;2023-10-13T12:11:17;3.57;;;2.17;;
7607;SDS011;3845;48.120;11.534;2023-10-13T12:14:03;5.77;;;2.27;;
7607;SDS011;3845;48.120;11.534;2023-10-13T12:16:36;4.97;;;2.20;;
7607;SDS011;3845;48.120;11.534;2023-10-13T12:19:02;4.80;;;2.30;;
7607;SDS011;3845;48.120;11.534;2023-10-13T12:21:30;7.23;;;2.30;;
7607;SDS011;3845;48.120;11.534;2023-10-13T12:23:55;7.97;;;3.07;;
7607;SDS011;3845;48.120;11.534;2023-10-13T12:26:20;5.23;;;2.50;;
7607;SDS011;3845;48.120;11.534;2023-10-13T12:28:46;7.20;;;4.40;;
7607;SDS011;3845;48.120;11.534;2023-10-13T12:31:31;8.67;;;3.30;;
7607;SDS011;3845;48.120;11.534;2023-10-13T12:33:57;4.77;;;2.73;;
7607;SDS011;3845;48.120;11.534;2023-10-13T12:36:31;5.43;;;2.80;;
7607;SDS011;3845;48.120;11.534;2023-10-13T12:39:06;6.57;;;2.67;;
7607;SDS011;3845;48.120;11.534;2023-10-13T12:41:31;7.73;;;2.20;;
7607;SDS011;3845;48.120;11.534;2023-10-13T12:44:15;4.13;;;2.17;;
7607;SDS011;3845;48.120;11.534;2023-10-13T12:46:59;6.10;;;2.30;;
7607;SDS011;3845;48.120;11.534;2023-10-13T12:49:43;4.80;;;2.33;;
7607;SDS011;3845;48.120;11.534;2023-10-13T12:52:14;5.40;;;2.47;;
7607;SDS011;3845;48.120;11.534;2023-10-13T12:54:59;3.87;;;2.20;;
7607;SDS011;3845;48.120;11.534;2023-10-13T12:57:31;4.73;;;2.30;;
7607;SDS011;3845;48.120;11.534;2023-10-13T12:59:57;6.30;;;2.70;;
7607;SDS011;3845;48.120;11.534;2023-10-13T13:02:23;4.37;;;2.57;;
7607;SDS011;3845;48.120;11.534;2023-10-13T13:04:55;9.30;;;3.03;;
7607;SDS011;3845;48.120;11.534;2023-10-13T13:07:37;5.90;;;2.40;;
7607;SDS011;3845;48.120;11.534;2023-10-13T13:10:12;6.37;;;2.50;;
7607;SDS011;3845;48.120;11.534;2023-10-13T13:12:42;6.20;;;2.60;;
7607;SDS011;3845;48.120;11.534;2023-10-13T13:15:07;4.20;;;2.20;;
7607;SDS011;3845;48.120;11.534;2023-10-13T13:17:34;6.50;;;2.37;;
7607;SDS011;3845;48.120;11.534;2023-10-13T13:20:04;4.93;;;2.03;;
7607;SDS011;3845;48.120;11.534;2023-10-13T13:22:39;7.40;;;2.63;;
7607;SDS011;3845;48.120;11.534;2023-10-13T13:25:05;6.73;;;2.40;;
7607;SDS011;3845;48.120;11.534;2023-10-13T13:27:33;3.43;;;1.97;;
7607;SDS011;3845;48.120;11.534;2023-10-13T13:29:59;5.30;;;2.50;;
7607;SDS011;3845;48.120;11.534;2023-10-13T13:32:25;6.63;;;2.20;;
7607;SDS011;3845;48.120;11.534;2023-10-13T13:34:53;3.37;;;1.90;;
7607;SDS011;3845;48.120;11.534;2023-10-13T13:37:22;10.60;;;3.10;;
7607;SDS011;3845;48.120;11.534;2023-10-13T13:39:48;7.73;;;3.30;;
7607;SDS011;3845;48.120;11.534;2023-10-13T13:42:17;5.27;;;2.97;;
7607;SDS011;3845;48.120;11.534;2023-10-13T13:44:43;5.90;;;2.27;;
7607;SDS011;3845;48.120;11.534;2023-10-13T13:47:14;7.63;;;2.33;;
7607;SDS011;3845;48.120;11.534;2023-10-13T13:49:40;5.33;;;2.70;;
7607;SDS011;3845;48.120;11.534;2023-10-13T13:52:11;7.17;;;3.03;;
7607;SDS011;3845;48.120;11.534;2023-10-13T13:54:42;5.67;;;2.60;;
7607;SDS011;3845;48.120;11.534;2023-10-13T13:57:08;5.67;;;2.70;;
7607;SDS011;3845;48.120;11.534;2023-10-13T13:59:33;7.13;;;2.57;;
7607;SDS011;3845;48.120;11.534;2023-10-13T14:01:59;5.30;;;2.10;;
7607;SDS011;3845;48.120;11.534;2023-10-13T14:04:29;4.13;;;2.10;;
7607;SDS011;3845;48.120;11.534;2023-10-13T14:06:56;7.10;;;4.00;;
7607;SDS011;3845;48.120;11.534;2023-10-13T14:09:21;4.33;;;2.93;;
7607;SDS011;3845;48.120;11.534;2023-10-13T14:12:05;7.10;;;2.63;;
7607;SDS011;3845;48.120;11.534;2023-10-13T14:14:57;4.30;;;2.03;;
7607;SDS011;3845;48.120;11.534;2023-10-13T14:17:22;6.67;;;2.33;;
7607;SDS011;3845;48.120;11.534;2023-10-13T14:19:57;6.40;;;2.20;;
7607;SDS011;3845;48.120;11.534;2023-10-13T14:22:22;3.37;;;2.30;;
7607;SDS011;3845;48.120;11.534;2023-10-13T14:24:50;4.43;;;2.10;;
7607;SDS011;3845;48.120;11.534;2023-10-13T14:27:19;6.33;;;2.63;;
7607;SDS011;3845;48.120;11.534;2023-10-13T14:29:47;6.30;;;2.80;;
7607;SDS011;3845;48.120;11.534;2023-10-13T14:32:17;8.03;;;2.87;;
7607;SDS011;3845;48.120;11.534;2023-10-13T14:34:44;4.47;;;2.40;;
7607;SDS011;3845;48.120;11.534;2023-10-13T14:37:11;6.83;;;2.37;;
7607;SDS011;3845;48.120;11.534;2023-10-13T14:39:39;7.23;;;2.20;;
7607;SDS011;3845;48.120;11.534;2023-10-13T14:42:05;6.53;;;2.20;;
7607;SDS011;3845;48.120;11.534;2023-10-13T14:44:34;5.63;;;2.10;;
7607;SDS011;3845;48.120;11.534;2023-10-13T14:47:00;6.13;;;2.33;;
7607;SDS011;3845;48.120;11.534;2023-10-13T14:49:26;4.13;;;2.17;;
7607;SDS011;3845;48.120;11.534;2023-10-13T14:51:51;6.93;;;2.20;;
7607;SDS011;3845;48.120;11.534;2023-10-13T14:54:20;4.40;;;1.90;;
7607;SDS011;3845;48.120;11.534;2023-10-13T14:56:57;5.43;;;2.30;;
7607;SDS011;3845;48.120;11.534;2023-10-13T14:59:23;7.23;;;2.30;;
7607;SDS011;3845;48.120;11.534;2023-10-13T15:01:49;6.57;;;2.30;;
7607;SDS011;3845;48.120;11.534;2023-10-13T15:04:14;6.13;;;2.50;;
7607;SDS011;3845;48.120;11.534;2023-10-13T15:06:39;3.93;;;2.10;;
7607;SDS011;3845;48.120;11.534;2023-10-13T15:09:05;7.40;;;2.27;;
7607;SDS011;3845;48.120;11.534;2023-10-13T15:11:35;4.07;;;2.13;;
7607;SDS011;3845;48.120;11.534;2023-10-13T15:14:01;3.47;;;2.00;;
7607;SDS011;3845;48.120;11.534;2023-10-13T15:16:27;5.93;;;2.33;;
7607;SDS011;3845;48.120;11.534;2023-10-13T15:18:53;5.60;;;2.63;;
7607;SDS011;3845;48.120;11.534;2023-10-13T15:21:22;7.77;;;2.23;;
7607;SDS011;3845;48.120;11.534;2023-10-13T15:23:53;6.80;;;2.40;;
7607;SDS011;3845;48.120;11.534;2023-10-13T15:26:24;3.90;;;2.63;;
7607;SDS011;3845;48.120;11.534;2023-10-13T15:28:49;6.53;;;2.40;;
7607;SDS011;3845;48.120;11.534;2023-10-13T15:31:18;5.57;;;2.50;;
7607;SDS011;3845;48.120;11.534;2023-10-13T15:33:52;6.37;;;2.73;;
7607;SDS011;3845;48.120;11.534;2023-10-13T15:36:19;5.37;;;2.30;;
7607;SDS011;3845;48.120;11.534;2023-10-13T15:38:45;5.23;;;3.07;;
7607;SDS011;3845;48.120;11.534;2023-10-13T15:41:11;6.30;;;2.57;;
7607;SDS011;3845;48.120;11.534;2023-10-13T15:43:37;6.17;;;2.70;;